sensor_id;sensor_type;location;lat;lon;timestamp;pressure;altitude;pressure_sealevel;temperature;humidity
78643;BME280;67954;47.618;17.606;2023-08-08T00:00:20;100371.06;;;14.80;71.88
78643;BME280;67954;47.618;17.606;2023-08-08T00:00:51;100371.59;;;14.84;71.92
78643;BME280;67954;47.618;17.606;2023-08-08T00:01:23;100374.81;;;14.87;71.94
78643;BME280;67954;47.618;17.606;2023-08-08T00:01:54;100375.13;;;14.84;71.83
78643;BME280;67954;47.618;17.606;2023-08-08T00:02:25;100371.59;;;14.84;71.85
78643;BME280;67954;47.618;17.606;2023-08-08T00:02:55;100374.63;;;14.81;72.61
78643;BME280;67954;47.618;17.606;2023-08-08T00:03:27;100367.91;;;14.77;72.16
78643;BME280;67954;47.618;17.606;2023-08-08T00:03:58;100370.91;;;14.82;71.93
78643;BME280;67954;47.618;17.606;2023-08-08T00:04:29;100376.16;;;14.83;72.24
78643;BME280;67954;47.618;17.606;2023-08-08T00:05:00;100368.56;;;14.79;71.65
78643;BME280;67954;47.618;17.606;2023-08-08T00:05:31;100378.38;;;14.80;71.81
78643;BME280;67954;47.618;17.606;2023-08-08T00:06:02;100372.59;;;14.83;72.16
78643;BME280;67954;47.618;17.606;2023-08-08T00:06:33;100373.44;;;14.83;72.55
78643;BME280;67954;47.618;17.606;2023-08-08T00:07:05;100374.84;;;14.79;72.39
78643;BME280;67954;47.618;17.606;2023-08-08T00:07:36;100372.97;;;14.80;71.97
78643;BME280;67954;47.618;17.606;2023-08-08T00:08:07;100373.97;;;14.79;72.92
78643;BME280;67954;47.618;17.606;2023-08-08T00:08:39;100372.97;;;14.80;71.99
78643;BME280;67954;47.618;17.606;2023-08-08T00:09:11;100379.69;;;14.84;73.06
78643;BME280;67954;47.618;17.606;2023-08-08T00:09:42;100376.84;;;14.77;72.43
78643;BME280;67954;47.618;17.606;2023-08-08T00:10:13;100381.06;;;14.72;72.59
78643;BME280;67954;47.618;17.606;2023-08-08T00:10:43;100378.38;;;14.72;73.35
78643;BME280;67954;47.618;17.606;2023-08-08T00:11:15;100381.59;;;14.75;72.09
78643;BME280;67954;47.618;17.606;2023-08-08T00:11:46;100373.31;;;14.77;72.73
78643;BME280;67954;47.618;17.606;2023-08-08T00:12:17;100375.84;;;14.78;72.75
78643;BME280;67954;47.618;17.606;2023-08-08T00:12:49;100378.38;;;14.80;72.41
78643;BME280;67954;47.618;17.606;2023-08-08T00:13:20;100375.00;;;14.78;72.28
78643;BME280;67954;47.618;17.606;2023-08-08T00:13:51;100372.78;;;14.81;71.97
78643;BME280;67954;47.618;17.606;2023-08-08T00:14:22;100379.03;;;14.82;72.61
78643;BME280;67954;47.618;17.606;2023-08-08T00:14:53;100383.78;;;14.80;71.67
78643;BME280;67954;47.618;17.606;2023-08-08T00:15:24;100372.28;;;14.78;72.62
78643;BME280;67954;47.618;17.606;2023-08-08T00:15:55;100375.69;;;14.80;71.86
78643;BME280;67954;47.618;17.606;2023-08-08T00:16:26;100384.78;;;14.87;72.59
78643;BME280;67954;47.618;17.606;2023-08-08T00:16:58;100382.06;;;14.87;72.21
78643;BME280;67954;47.618;17.606;2023-08-08T00:17:28;100377.84;;;14.84;72.71
78643;BME280;67954;47.618;17.606;2023-08-08T00:17:59;100375.66;;;14.88;72.73
78643;BME280;67954;47.618;17.606;2023-08-08T00:18:30;100380.56;;;14.84;72.85
78643;BME280;67954;47.618;17.606;2023-08-08T00:19:02;100373.78;;;14.80;72.36
78643;BME280;67954;47.618;17.606;2023-08-08T00:19:33;100381.22;;;14.86;71.90
78643;BME280;67954;47.618;17.606;2023-08-08T00:20:05;100378.84;;;14.83;72.53
78643;BME280;67954;47.618;17.606;2023-08-08T00:20:37;100383.94;;;14.86;72.63
78643;BME280;67954;47.618;17.606;2023-08-08T00:21:09;100377.69;;;14.86;72.58
78643;BME280;67954;47.618;17.606;2023-08-08T00:21:40;100373.97;;;14.87;71.94
78643;BME280;67954;47.618;17.606;2023-08-08T00:22:10;100377.69;;;14.86;72.25
78643;BME280;67954;47.618;17.606;2023-08-08T00:22:41;100385.78;;;14.86;71.59
78643;BME280;67954;47.618;17.606;2023-08-08T00:23:13;100380.03;;;14.89;71.67
78643;BME280;67954;47.618;17.606;2023-08-08T00:23:45;100380.22;;;14.87;71.92
78643;BME280;67954;47.618;17.606;2023-08-08T00:24:16;100380.56;;;14.84;72.04
78643;BME280;67954;47.618;17.606;2023-08-08T00:24:47;100380.03;;;14.89;72.22
78643;BME280;67954;47.618;17.606;2023-08-08T00:25:19;100373.63;;;14.90;72.27
78643;BME280;67954;47.618;17.606;2023-08-08T00:25:49;100376.50;;;14.88;71.94
78643;BME280;67954;47.618;17.606;2023-08-08T00:26:21;100374.47;;;14.90;72.35
78643;BME280;67954;47.618;17.606;2023-08-08T00:26:53;100374.63;;;14.89;72.26
78643;BME280;67954;47.618;17.606;2023-08-08T00:27:24;100371.75;;;14.90;72.52
78643;BME280;67954;47.618;17.606;2023-08-08T00:27:55;100384.44;;;14.90;71.84
78643;BME280;67954;47.618;17.606;2023-08-08T00:28:26;100379.38;;;14.87;72.29
78643;BME280;67954;47.618;17.606;2023-08-08T00:28:57;100382.75;;;14.89;71.94
78643;BME280;67954;47.618;17.606;2023-08-08T00:29:28;100376.50;;;14.88;72.15
78643;BME280;67954;47.618;17.606;2023-08-08T00:29:59;100377.84;;;14.92;71.67
78643;BME280;67954;47.618;17.606;2023-08-08T00:30:30;100374.09;;;14.93;72.37
78643;BME280;67954;47.618;17.606;2023-08-08T00:31:01;100378.31;;;14.96;71.92
78643;BME280;67954;47.618;17.606;2023-08-08T00:31:32;100377.84;;;14.92;72.22
78643;BME280;67954;47.618;17.606;2023-08-08T00:32:03;100380.22;;;14.87;71.90
78643;BME280;67954;47.618;17.606;2023-08-08T00:32:35;100376.66;;;14.87;71.97
78643;BME280;67954;47.618;17.606;2023-08-08T00:33:06;100369.91;;;14.83;72.70
78643;BME280;67954;47.618;17.606;2023-08-08T00:33:37;100378.69;;;14.85;72.63
78643;BME280;67954;47.618;17.606;2023-08-08T00:34:08;100376.66;;;14.87;72.17
78643;BME280;67954;47.618;17.606;2023-08-08T00:34:39;100381.72;;;14.82;72.29
78643;BME280;67954;47.618;17.606;2023-08-08T00:35:10;100379.69;;;14.84;72.03
78643;BME280;67954;47.618;17.606;2023-08-08T00:35:41;100374.28;;;14.84;72.91
78643;BME280;67954;47.618;17.606;2023-08-08T00:36:12;100378.53;;;14.86;72.68
78643;BME280;67954;47.618;17.606;2023-08-08T00:36:43;100380.56;;;14.84;73.10
78643;BME280;67954;47.618;17.606;2023-08-08T00:37:14;100384.78;;;14.87;73.04
78643;BME280;67954;47.618;17.606;2023-08-08T00:37:45;100380.72;;;14.83;72.69
78643;BME280;67954;47.618;17.606;2023-08-08T00:38:17;100375.31;;;14.83;72.01
78643;BME280;67954;47.618;17.606;2023-08-08T00:38:50;100379.19;;;14.80;72.15
78643;BME280;67954;47.618;17.606;2023-08-08T00:39:21;100380.03;;;14.81;72.35
78643;BME280;67954;47.618;17.606;2023-08-08T00:39:52;100377.00;;;14.84;71.95
78643;BME280;67954;47.618;17.606;2023-08-08T00:40:23;100381.06;;;14.88;72.30
78643;BME280;67954;47.618;17.606;2023-08-08T00:40:54;100379.38;;;14.87;72.11
78643;BME280;67954;47.618;17.606;2023-08-08T00:41:25;100381.72;;;14.82;72.31
78643;BME280;67954;47.618;17.606;2023-08-08T00:41:56;100380.03;;;14.81;72.80
78643;BME280;67954;47.618;17.606;2023-08-08T00:42:28;100381.25;;;14.70;72.21
78643;BME280;67954;47.618;17.606;2023-08-08T00:42:59;100374.66;;;14.73;72.48
78643;BME280;67954;47.618;17.606;2023-08-08T00:43:29;100379.72;;;14.76;72.13
78643;BME280;67954;47.618;17.606;2023-08-08T00:44:00;100376.31;;;14.82;71.87
78643;BME280;67954;47.618;17.606;2023-08-08T00:44:32;100377.16;;;14.82;72.69
78643;BME280;67954;47.618;17.606;2023-08-08T00:45:03;100378.00;;;14.83;72.44
78643;BME280;67954;47.618;17.606;2023-08-08T00:45:34;100375.31;;;14.83;72.85
78643;BME280;67954;47.618;17.606;2023-08-08T00:46:05;100377.84;;;14.84;72.31
78643;BME280;67954;47.618;17.606;2023-08-08T00:46:38;100383.25;;;14.84;72.83
78643;BME280;67954;47.618;17.606;2023-08-08T00:47:09;100377.50;;;14.87;72.37
78643;BME280;67954;47.618;17.606;2023-08-08T00:47:40;100382.94;;;14.79;72.01
78643;BME280;67954;47.618;17.606;2023-08-08T00:48:13;100384.13;;;14.77;71.86
78643;BME280;67954;47.618;17.606;2023-08-08T00:48:44;100379.19;;;14.80;72.55
78643;BME280;67954;47.618;17.606;2023-08-08T00:49:15;100375.00;;;14.78;72.39
78643;BME280;67954;47.618;17.606;2023-08-08T00:49:46;100385.81;;;14.78;72.86
78643;BME280;67954;47.618;17.606;2023-08-08T00:50:19;100379.56;;;14.77;72.49
78643;BME280;67954;47.618;17.606;2023-08-08T00:50:51;100384.13;;;14.77;72.63
78643;BME280;67954;47.618;17.606;2023-08-08T00:51:23;100384.97;;;14.77;72.58
78643;BME280;67954;47.618;17.606;2023-08-08T00:51:55;100379.72;;;14.76;72.91
78643;BME280;67954;47.618;17.606;2023-08-08T00:52:26;100389.03;;;14.73;72.27
78643;BME280;67954;47.618;17.606;2023-08-08T00:52:57;100379.38;;;14.71;72.79
78643;BME280;67954;47.618;17.606;2023-08-08T00:53:30;100388.84;;;14.75;72.77
78643;BME280;67954;47.618;17.606;2023-08-08T00:54:04;100387.00;;;14.75;72.96
78643;BME280;67954;47.618;17.606;2023-08-08T00:54:35;100386.50;;;14.72;72.57
78643;BME280;67954;47.618;17.606;2023-08-08T00:55:06;100384.47;;;14.74;73.01
78643;BME280;67954;47.618;17.606;2023-08-08T00:55:38;100388.00;;;14.74;73.40
78643;BME280;67954;47.618;17.606;2023-08-08T00:56:13;100382.09;;;14.71;72.37
78643;BME280;67954;47.618;17.606;2023-08-08T00:56:44;100383.63;;;14.65;72.66
78643;BME280;67954;47.618;17.606;2023-08-08T00:57:14;100394.28;;;14.67;73.09
78643;BME280;67954;47.618;17.606;2023-08-08T00:57:46;100385.13;;;14.68;72.95
78643;BME280;67954;47.618;17.606;2023-08-08T00:58:18;100387.84;;;14.68;73.37
78643;BME280;67954;47.618;17.606;2023-08-08T00:58:49;100380.09;;;14.64;73.70
78643;BME280;67954;47.618;17.606;2023-08-08T00:59:21;100390.22;;;14.62;72.51
78643;BME280;67954;47.618;17.606;2023-08-08T00:59:53;100384.81;;;14.62;73.42
78643;BME280;67954;47.618;17.606;2023-08-08T01:00:24;100388.19;;;14.64;72.72
78643;BME280;67954;47.618;17.606;2023-08-08T01:00:55;100390.91;;;14.64;72.57
78643;BME280;67954;47.618;17.606;2023-08-08T01:01:30;100394.28;;;14.67;72.87
78643;BME280;67954;47.618;17.606;2023-08-08T01:02:01;100385.97;;;14.68;72.85
78643;BME280;67954;47.618;17.606;2023-08-08T01:02:31;100380.94;;;14.65;72.21
78643;BME280;67954;47.618;17.606;2023-08-08T01:03:03;100388.03;;;14.66;73.13
78643;BME280;67954;47.618;17.606;2023-08-08T01:03:33;100388.19;;;14.64;72.32
78643;BME280;67954;47.618;17.606;2023-08-08T01:04:05;100394.28;;;14.67;72.88
78643;BME280;67954;47.618;17.606;2023-08-08T01:04:37;100388.03;;;14.66;72.92
78643;BME280;67954;47.618;17.606;2023-08-08T01:05:10;100395.47;;;14.64;72.31
78643;BME280;67954;47.618;17.606;2023-08-08T01:05:48;100389.22;;;14.63;73.11
78643;BME280;67954;47.618;17.606;2023-08-08T01:06:28;100391.75;;;14.65;73.36
78643;BME280;67954;47.618;17.606;2023-08-08T01:07:08;100392.94;;;14.62;72.81
78643;BME280;67954;47.618;17.606;2023-08-08T01:07:50;100386.34;;;14.65;72.41
78643;BME280;67954;47.618;17.606;2023-08-08T01:08:29;100391.75;;;14.65;73.06
78643;BME280;67954;47.618;17.606;2023-08-08T01:09:09;100392.59;;;14.65;73.01
78643;BME280;67954;47.618;17.606;2023-08-08T01:09:47;100389.38;;;14.62;72.49
78643;BME280;67954;47.618;17.606;2023-08-08T01:10:27;100395.81;;;14.61;72.24
78643;BME280;67954;47.618;17.606;2023-08-08T01:11:00;100390.06;;;14.64;72.79
78643;BME280;67954;47.618;17.606;2023-08-08T01:11:34;100399.69;;;14.67;72.47
78643;BME280;67954;47.618;17.606;2023-08-08T01:12:09;100393.63;;;14.64;72.95
78643;BME280;67954;47.618;17.606;2023-08-08T01:12:45;100395.94;;;14.68;72.74
78643;BME280;67954;47.618;17.606;2023-08-08T01:13:20;100392.22;;;14.69;72.32
78643;BME280;67954;47.618;17.606;2023-08-08T01:13:54;100392.22;;;14.69;72.71
78643;BME280;67954;47.618;17.606;2023-08-08T01:14:28;100394.94;;;14.69;72.93
78643;BME280;67954;47.618;17.606;2023-08-08T01:15:01;100393.25;;;14.68;72.32
78643;BME280;67954;47.618;17.606;2023-08-08T01:15:34;100393.91;;;14.70;72.17
78643;BME280;67954;47.618;17.606;2023-08-08T01:16:07;100397.47;;;14.70;73.20
78643;BME280;67954;47.618;17.606;2023-08-08T01:16:39;100394.28;;;14.67;72.75
78643;BME280;67954;47.618;17.606;2023-08-08T01:17:11;100400.50;;;14.67;72.11
78643;BME280;67954;47.618;17.606;2023-08-08T01:17:44;100398.84;;;14.66;72.01
78643;BME280;67954;47.618;17.606;2023-08-08T01:18:17;100403.41;;;14.65;73.04
78643;BME280;67954;47.618;17.606;2023-08-08T01:18:49;100405.91;;;14.67;73.23
78643;BME280;67954;47.618;17.606;2023-08-08T01:19:27;100399.69;;;14.67;73.46
78643;BME280;67954;47.618;17.606;2023-08-08T01:19:59;100399.34;;;14.61;72.88
78643;BME280;67954;47.618;17.606;2023-08-08T01:20:31;100398.84;;;14.66;72.36
78643;BME280;67954;47.618;17.606;2023-08-08T01:21:04;100409.31;;;14.69;72.44
78643;BME280;67954;47.618;17.606;2023-08-08T01:21:38;100402.03;;;14.70;72.52
78643;BME280;67954;47.618;17.606;2023-08-08T01:22:19;100406.75;;;14.68;73.06
78643;BME280;67954;47.618;17.606;2023-08-08T01:22:58;100401.19;;;14.69;72.63
78643;BME280;67954;47.618;17.606;2023-08-08T01:23:38;100400.19;;;14.70;73.37
78643;BME280;67954;47.618;17.606;2023-08-08T01:24:18;100410.84;;;14.63;72.83
78643;BME280;67954;47.618;17.606;2023-08-08T01:24:50;100417.59;;;14.68;72.05
78643;BME280;67954;47.618;17.606;2023-08-08T01:25:23;100413.38;;;14.65;73.20
78643;BME280;67954;47.618;17.606;2023-08-08T01:25:55;100412.53;;;14.64;73.25
78643;BME280;67954;47.618;17.606;2023-08-08T01:26:28;100412.53;;;14.64;72.88
78643;BME280;67954;47.618;17.606;2023-08-08T01:27:00;100414.03;;;14.67;73.30
78643;BME280;67954;47.618;17.606;2023-08-08T01:27:31;100405.59;;;14.70;73.37
78643;BME280;67954;47.618;17.606;2023-08-08T01:28:03;100407.28;;;14.63;73.27
78643;BME280;67954;47.618;17.606;2023-08-08T01:28:36;100414.03;;;14.67;73.47
78643;BME280;67954;47.618;17.606;2023-08-08T01:29:07;100407.28;;;14.71;72.62
78643;BME280;67954;47.618;17.606;2023-08-08T01:29:38;100413.53;;;14.72;72.75
78643;BME280;67954;47.618;17.606;2023-08-08T01:30:10;100412.38;;;14.66;72.84
78643;BME280;67954;47.618;17.606;2023-08-08T01:30:43;100411.69;;;14.64;73.58
78643;BME280;67954;47.618;17.606;2023-08-08T01:31:14;100406.13;;;14.65;73.66
78643;BME280;67954;47.618;17.606;2023-08-08T01:31:45;100416.75;;;14.67;72.94
78643;BME280;67954;47.618;17.606;2023-08-08T01:32:15;100413.72;;;14.62;73.29
78643;BME280;67954;47.618;17.606;2023-08-08T01:32:47;100414.03;;;14.59;73.43
78643;BME280;67954;47.618;17.606;2023-08-08T01:33:18;100410.34;;;14.60;73.53
78643;BME280;67954;47.618;17.606;2023-08-08T01:33:49;100409.50;;;14.59;73.74
78643;BME280;67954;47.618;17.606;2023-08-08T01:34:20;100417.75;;;14.58;72.86
78643;BME280;67954;47.618;17.606;2023-08-08T01:34:52;100411.19;;;14.52;73.43
78643;BME280;67954;47.618;17.606;2023-08-08T01:35:26;100417.25;;;14.54;73.14
78643;BME280;67954;47.618;17.606;2023-08-08T01:36:02;100415.22;;;14.56;73.58
78643;BME280;67954;47.618;17.606;2023-08-08T01:36:39;100414.22;;;14.57;73.32
78643;BME280;67954;47.618;17.606;2023-08-08T01:37:17;100409.16;;;14.62;73.50
78643;BME280;67954;47.618;17.606;2023-08-08T01:37:51;100407.97;;;14.65;73.50
78643;BME280;67954;47.618;17.606;2023-08-08T01:38:30;100417.59;;;14.68;73.29
78643;BME280;67954;47.618;17.606;2023-08-08T01:39:06;100411.16;;;14.69;72.90
78643;BME280;67954;47.618;17.606;2023-08-08T01:39:43;100417.59;;;14.68;73.81
78643;BME280;67954;47.618;17.606;2023-08-08T01:40:16;100415.41;;;14.63;73.04
78643;BME280;67954;47.618;17.606;2023-08-08T01:40:48;100408.97;;;14.56;73.83
78643;BME280;67954;47.618;17.606;2023-08-08T01:41:20;100415.22;;;14.56;74.13
78643;BME280;67954;47.618;17.606;2023-08-08T01:41:53;100413.72;;;14.62;74.14
78643;BME280;67954;47.618;17.606;2023-08-08T01:42:25;100420.81;;;14.63;73.21
78643;BME280;67954;47.618;17.606;2023-08-08T01:42:58;100418.13;;;14.63;73.93
78643;BME280;67954;47.618;17.606;2023-08-08T01:43:29;100413.72;;;14.62;73.89
78643;BME280;67954;47.618;17.606;2023-08-08T01:44:01;100412.53;;;14.64;73.87
78643;BME280;67954;47.618;17.606;2023-08-08T01:44:33;100418.97;;;14.63;73.47
78643;BME280;67954;47.618;17.606;2023-08-08T01:45:07;100414.22;;;14.65;73.94
78643;BME280;67954;47.618;17.606;2023-08-08T01:45:39;100416.59;;;14.60;73.74
78643;BME280;67954;47.618;17.606;2023-08-08T01:46:10;100416.06;;;14.57;74.15
78643;BME280;67954;47.618;17.606;2023-08-08T01:46:42;100412.03;;;14.53;74.56
78643;BME280;67954;47.618;17.606;2023-08-08T01:47:14;100416.25;;;14.55;74.21
78643;BME280;67954;47.618;17.606;2023-08-08T01:47:49;100416.91;;;14.57;73.72
78643;BME280;67954;47.618;17.606;2023-08-08T01:48:20;100414.53;;;14.54;74.37
78643;BME280;67954;47.618;17.606;2023-08-08T01:48:53;100413.38;;;14.49;74.60
78643;BME280;67954;47.618;17.606;2023-08-08T01:49:23;100416.94;;;14.49;74.90
78643;BME280;67954;47.618;17.606;2023-08-08T01:49:54;100421.50;;;14.49;74.46
78643;BME280;67954;47.618;17.606;2023-08-08T01:50:25;100418.78;;;14.49;74.78
78643;BME280;67954;47.618;17.606;2023-08-08T01:50:57;100413.03;;;14.44;74.51
78643;BME280;67954;47.618;17.606;2023-08-08T01:51:27;100415.41;;;14.47;74.14
78643;BME280;67954;47.618;17.606;2023-08-08T01:51:58;100420.97;;;14.45;75.58
78643;BME280;67954;47.618;17.606;2023-08-08T01:52:29;100413.72;;;14.46;74.79
78643;BME280;67954;47.618;17.606;2023-08-08T01:53:01;100421.31;;;14.42;75.47
78643;BME280;67954;47.618;17.606;2023-08-08T01:53:32;100422.31;;;14.41;75.49
78643;BME280;67954;47.618;17.606;2023-08-08T01:54:02;100418.81;;;14.41;75.52
78643;BME280;67954;47.618;17.606;2023-08-08T01:54:33;100415.91;;;14.42;74.88
78643;BME280;67954;47.618;17.606;2023-08-08T01:55:08;100422.84;;;14.45;75.47
78643;BME280;67954;47.618;17.606;2023-08-08T01:55:39;100421.63;;;14.39;74.87
78643;BME280;67954;47.618;17.606;2023-08-08T01:56:09;100417.91;;;14.32;75.16
78643;BME280;67954;47.618;17.606;2023-08-08T01:56:40;100422.44;;;14.31;75.57
78643;BME280;67954;47.618;17.606;2023-08-08T01:57:12;100418.59;;;14.26;75.19
78643;BME280;67954;47.618;17.606;2023-08-08T01:57:43;100413.50;;;14.23;75.78
78643;BME280;67954;47.618;17.606;2023-08-08T01:58:14;100417.06;;;14.23;75.83
78643;BME280;67954;47.618;17.606;2023-08-08T01:58:44;100412.66;;;14.22;76.00
78643;BME280;67954;47.618;17.606;2023-08-08T01:59:16;100415.53;;;14.21;76.51
78643;BME280;67954;47.618;17.606;2023-08-08T01:59:47;100422.44;;;14.15;76.80
78643;BME280;67954;47.618;17.606;2023-08-08T02:00:18;100422.09;;;14.18;76.92
78643;BME280;67954;47.618;17.606;2023-08-08T02:00:50;100421.94;;;14.20;76.61
78643;BME280;67954;47.618;17.606;2023-08-08T02:01:21;100414.31;;;14.15;75.74
78643;BME280;67954;47.618;17.606;2023-08-08T02:01:51;100425.13;;;14.15;76.78
78643;BME280;67954;47.618;17.606;2023-08-08T02:02:22;100419.06;;;14.13;76.56
78643;BME280;67954;47.618;17.606;2023-08-08T02:02:54;100428.19;;;14.12;76.21
78643;BME280;67954;47.618;17.606;2023-08-08T02:03:25;100428.34;;;14.11;76.94
78643;BME280;67954;47.618;17.606;2023-08-08T02:03:55;100426.81;;;14.08;76.63
78643;BME280;67954;47.618;17.606;2023-08-08T02:04:26;100424.59;;;14.04;76.77
78643;BME280;67954;47.618;17.606;2023-08-08T02:04:58;100428.66;;;14.00;76.56
78643;BME280;67954;47.618;17.606;2023-08-08T02:05:29;100430.47;;;13.91;78.01
78643;BME280;67954;47.618;17.606;2023-08-08T02:06:00;100422.91;;;13.94;77.10
78643;BME280;67954;47.618;17.606;2023-08-08T02:06:31;100429.00;;;13.97;76.97
78643;BME280;67954;47.618;17.606;2023-08-08T02:07:03;100428.66;;;14.00;77.59
78643;BME280;67954;47.618;17.606;2023-08-08T02:07:34;100420.22;;;14.03;76.77
78643;BME280;67954;47.618;17.606;2023-08-08T02:08:05;100435.09;;;14.07;76.85
78643;BME280;67954;47.618;17.606;2023-08-08T02:08:36;100424.13;;;14.00;77.22
78643;BME280;67954;47.618;17.606;2023-08-08T02:09:08;100425.81;;;14.01;77.24
78643;BME280;67954;47.618;17.606;2023-08-08T02:09:38;100429.00;;;14.05;77.40
78643;BME280;67954;47.618;17.606;2023-08-08T02:10:10;100426.47;;;14.03;76.63
78643;BME280;67954;47.618;17.606;2023-08-08T02:10:41;100426.31;;;14.05;76.78
78643;BME280;67954;47.618;17.606;2023-08-08T02:11:13;100428.50;;;14.01;76.96
78643;BME280;67954;47.618;17.606;2023-08-08T02:11:44;100429.50;;;14.00;76.97
78643;BME280;67954;47.618;17.606;2023-08-08T02:12:14;100427.31;;;13.95;77.03
78643;BME280;67954;47.618;17.606;2023-08-08T02:12:45;100430.84;;;13.88;78.07
78643;BME280;67954;47.618;17.606;2023-08-08T02:13:17;100429.31;;;13.93;77.91
78643;BME280;67954;47.618;17.606;2023-08-08T02:13:48;100426.44;;;13.95;78.00
78643;BME280;67954;47.618;17.606;2023-08-08T02:14:19;100428.47;;;13.93;77.78
78643;BME280;67954;47.618;17.606;2023-08-08T02:14:50;100434.50;;;13.79;78.06
78643;BME280;67954;47.618;17.606;2023-08-08T02:15:21;100435.19;;;13.81;78.25
78643;BME280;67954;47.618;17.606;2023-08-08T02:15:52;100432.63;;;13.71;77.94
78643;BME280;67954;47.618;17.606;2023-08-08T02:16:23;100435.50;;;13.70;78.43
78643;BME280;67954;47.618;17.606;2023-08-08T02:16:54;100428.25;;;13.70;79.01
78643;BME280;67954;47.618;17.606;2023-08-08T02:17:26;100426.53;;;13.69;78.47
78643;BME280;67954;47.618;17.606;2023-08-08T02:17:56;100433.31;;;13.73;78.67
78643;BME280;67954;47.618;17.606;2023-08-08T02:18:27;100424.72;;;13.78;78.18
78643;BME280;67954;47.618;17.606;2023-08-08T02:18:58;100426.41;;;13.79;78.45
78643;BME280;67954;47.618;17.606;2023-08-08T02:19:30;100421.16;;;13.69;78.25
78643;BME280;67954;47.618;17.606;2023-08-08T02:20:01;100424.00;;;13.59;79.05
78643;BME280;67954;47.618;17.606;2023-08-08T02:20:31;100420.13;;;13.62;78.59
78643;BME280;67954;47.618;17.606;2023-08-08T02:21:02;100423.47;;;13.64;79.39
78643;BME280;67954;47.618;17.606;2023-08-08T02:21:34;100422.44;;;13.57;79.44
78643;BME280;67954;47.618;17.606;2023-08-08T02:22:05;100416.34;;;13.47;79.78
78643;BME280;67954;47.618;17.606;2023-08-08T02:22:36;100420.69;;;13.40;79.52
78643;BME280;67954;47.618;17.606;2023-08-08T02:23:06;100427.16;;;13.47;80.36
78643;BME280;67954;47.618;17.606;2023-08-08T02:23:38;100420.38;;;13.51;80.18
78643;BME280;67954;47.618;17.606;2023-08-08T02:24:09;100427.00;;;13.56;80.12
78643;BME280;67954;47.618;17.606;2023-08-08T02:24:40;100424.16;;;13.58;79.54
78643;BME280;67954;47.618;17.606;2023-08-08T02:25:12;100431.88;;;13.53;79.67
78643;BME280;67954;47.618;17.606;2023-08-08T02:25:44;100436.88;;;13.40;80.39
78643;BME280;67954;47.618;17.606;2023-08-08T02:26:15;100422.38;;;13.41;80.72
78643;BME280;67954;47.618;17.606;2023-08-08T02:26:46;100428.47;;;13.43;80.23
78643;BME280;67954;47.618;17.606;2023-08-08T02:27:16;100429.47;;;13.42;79.89
78643;BME280;67954;47.618;17.606;2023-08-08T02:27:48;100430.97;;;13.36;80.38
78643;BME280;67954;47.618;17.606;2023-08-08T02:28:19;100430.59;;;13.31;80.20
78643;BME280;67954;47.618;17.606;2023-08-08T02:28:50;100434.47;;;13.29;80.97
78643;BME280;67954;47.618;17.606;2023-08-08T02:29:21;100432.09;;;13.26;80.62
78643;BME280;67954;47.618;17.606;2023-08-08T02:29:53;100427.38;;;13.28;80.97
78643;BME280;67954;47.618;17.606;2023-08-08T02:30:24;100431.41;;;13.23;81.00
78643;BME280;67954;47.618;17.606;2023-08-08T02:30:55;100429.19;;;13.19;80.95
78643;BME280;67954;47.618;17.606;2023-08-08T02:31:26;100425.34;;;13.21;80.89
78643;BME280;67954;47.618;17.606;2023-08-08T02:31:58;100426.09;;;13.14;81.83
78643;BME280;67954;47.618;17.606;2023-08-08T02:32:28;100435.19;;;13.13;81.85
78643;BME280;67954;47.618;17.606;2023-08-08T02:32:59;100435.00;;;13.06;82.13
78643;BME280;67954;47.618;17.606;2023-08-08T02:33:30;100435.75;;;12.99;81.54
78643;BME280;67954;47.618;17.606;2023-08-08T02:34:02;100434.09;;;12.98;82.16
78643;BME280;67954;47.618;17.606;2023-08-08T02:34:33;100435.41;;;12.94;82.62
78643;BME280;67954;47.618;17.606;2023-08-08T02:35:04;100431.22;;;12.99;81.30
78643;BME280;67954;47.618;17.606;2023-08-08T02:35:36;100435.00;;;13.06;81.75
78643;BME280;67954;47.618;17.606;2023-08-08T02:36:08;100436.00;;;13.05;81.96
78643;BME280;67954;47.618;17.606;2023-08-08T02:36:39;100436.69;;;13.07;81.92
78643;BME280;67954;47.618;17.606;2023-08-08T02:37:10;100437.00;;;13.04;82.01
78643;BME280;67954;47.618;17.606;2023-08-08T02:37:41;100436.00;;;13.05;81.41
78643;BME280;67954;47.618;17.606;2023-08-08T02:38:13;100440.06;;;13.09;81.83
78643;BME280;67954;47.618;17.606;2023-08-08T02:38:44;100439.66;;;12.96;81.98
78643;BME280;67954;47.618;17.606;2023-08-08T02:39:15;100441.50;;;12.96;82.16
78643;BME280;67954;47.618;17.606;2023-08-08T02:39:46;100439.50;;;12.98;82.37
78643;BME280;67954;47.618;17.606;2023-08-08T02:40:19;100442.53;;;12.77;83.29
78643;BME280;67954;47.618;17.606;2023-08-08T02:40:50;100443.69;;;12.74;83.56
78643;BME280;67954;47.618;17.606;2023-08-08T02:41:21;100442.91;;;12.82;83.19
78643;BME280;67954;47.618;17.606;2023-08-08T02:41:52;100437.25;;;12.93;82.73
78643;BME280;67954;47.618;17.606;2023-08-08T02:42:22;100434.03;;;12.89;83.32
78643;BME280;67954;47.618;17.606;2023-08-08T02:42:54;100437.69;;;12.80;83.35
78643;BME280;67954;47.618;17.606;2023-08-08T02:43:25;100445.53;;;12.74;83.76
78643;BME280;67954;47.618;17.606;2023-08-08T02:43:56;100443.78;;;12.82;82.81
78643;BME280;67954;47.618;17.606;2023-08-08T02:44:27;100436.19;;;12.86;82.96
78643;BME280;67954;47.618;17.606;2023-08-08T02:44:59;100442.22;;;12.80;83.21